createdAt,value
2018-11-27T00:01:18.735Z,5.28
2018-11-27T00:03:58.118Z,5.44
2018-11-27T00:06:28.078Z,5.53
2018-11-27T00:08:58.142Z,5.65
2018-11-27T00:11:28.127Z,5.74
2018-11-27T00:13:58.056Z,5.82
2018-11-27T00:16:27.971Z,5.78
2018-11-27T00:18:57.934Z,5.78
2018-11-27T00:21:28.024Z,5.77
2018-11-27T00:23:58.845Z,5.85
2018-11-27T00:26:28.806Z,5.87
2018-11-27T00:28:58.785Z,5.88
2018-11-27T00:31:28.771Z,5.79
2018-11-27T00:33:59.461Z,5.72
2018-11-27T00:36:29.398Z,5.62
2018-11-27T00:38:59.372Z,5.59
2018-11-27T00:41:29.327Z,5.59
2018-11-27T00:44:00.086Z,5.49
2018-11-27T00:46:30.073Z,5.49
2018-11-27T00:49:00.039Z,5.49
2018-11-27T00:51:29.950Z,5.05
2018-11-27T00:54:00.761Z,4.67
2018-11-27T00:56:30.652Z,4.38
2018-11-27T00:59:00.632Z,4.11
2018-11-27T01:01:30.557Z,4.03
2018-11-27T01:04:01.370Z,3.90
2018-11-27T01:06:31.310Z,3.97
2018-11-27T01:09:01.183Z,3.90
2018-11-27T01:11:31.947Z,4.03
2018-11-27T01:14:01.908Z,4.28
2018-11-27T01:16:31.909Z,4.56
2018-11-27T01:19:01.850Z,4.77
2018-11-27T01:21:31.833Z,4.95
2018-11-27T01:24:02.553Z,5.16
2018-11-27T01:26:32.588Z,5.41
2018-11-27T01:29:02.557Z,5.51
2018-11-27T01:31:32.441Z,5.68
2018-11-27T01:34:02.471Z,5.70
2018-11-27T01:36:32.448Z,5.69
2018-11-27T01:39:02.403Z,5.72
2018-11-27T01:41:32.377Z,5.87
2018-11-27T01:44:02.357Z,5.88
2018-11-27T01:46:32.276Z,5.79
2018-11-27T01:49:02.424Z,5.86
2018-11-27T01:51:33.143Z,5.93
2018-11-27T01:54:03.091Z,5.99
2018-11-27T01:56:33.002Z,5.93
2018-11-27T01:59:02.951Z,5.82
2018-11-27T02:01:32.906Z,5.90
2018-11-27T02:04:02.891Z,5.90
2018-11-27T02:06:32.881Z,5.80
2018-11-27T02:09:02.834Z,5.94
2018-11-27T02:11:32.918Z,5.72
2018-11-27T02:14:03.639Z,5.46
2018-11-27T02:16:33.593Z,5.39
2018-11-27T02:19:03.532Z,5.37
2018-11-27T02:21:33.418Z,5.30
2018-11-27T02:24:03.407Z,5.12
2018-11-27T02:26:33.302Z,5.12
2018-11-27T02:29:04.078Z,4.98
2018-11-27T02:31:34.400Z,4.93
2018-11-27T02:34:04.838Z,4.80
2018-11-27T02:36:34.786Z,4.73
2018-11-27T02:39:06.144Z,4.83
2018-11-27T02:41:36.024Z,4.92
2018-11-27T02:44:07.063Z,5.09
2018-11-27T02:46:36.993Z,5.19
2018-11-27T02:49:07.128Z,5.24
2018-11-27T02:51:37.049Z,5.35
2018-11-27T02:54:06.948Z,5.43
2018-11-27T02:56:37.941Z,5.47
2018-11-27T02:59:08.348Z,5.54
2018-11-27T03:01:40.929Z,5.61
2018-11-27T03:04:10.841Z,5.68
2018-11-27T03:06:40.946Z,5.75
2018-11-27T03:09:13.595Z,5.84
2018-11-27T03:11:43.468Z,5.80
2018-11-27T03:14:13.386Z,5.91
2018-11-27T03:16:44.067Z,5.90
2018-11-27T03:19:14.221Z,5.97
2018-11-27T03:21:46.723Z,6.00
2018-11-27T03:24:16.659Z,5.96
2018-11-27T03:26:48.358Z,5.85
2018-11-27T03:29:20.203Z,5.66
2018-11-27T03:31:50.935Z,5.64
2018-11-27T03:34:20.963Z,5.57
2018-11-27T03:36:50.966Z,5.58
2018-11-27T03:39:20.903Z,5.66
2018-11-27T03:41:51.135Z,5.55
2018-11-27T03:44:21.124Z,5.39
2018-11-27T03:46:51.155Z,5.15
2018-11-27T03:49:21.163Z,5.00
2018-11-27T03:51:51.081Z,4.88
2018-11-27T03:54:21.070Z,4.89
2018-11-27T03:56:51.054Z,4.69
2018-11-27T03:59:21.079Z,4.53
2018-11-27T04:01:50.969Z,4.60
2018-11-27T04:04:20.872Z,4.51
2018-11-27T04:06:50.794Z,4.71
2018-11-27T04:09:20.766Z,4.81
2018-11-27T04:11:51.567Z,4.89
2018-11-27T04:14:21.872Z,5.06
2018-11-27T04:16:51.808Z,5.05
2018-11-27T04:19:21.778Z,5.15
2018-11-27T04:21:51.734Z,5.34
2018-11-27T04:24:23.407Z,5.62
2018-11-27T04:26:52.428Z,5.90
2018-11-27T04:29:23.199Z,5.90
2018-11-27T04:31:53.897Z,5.98
2018-11-27T04:34:23.872Z,5.98
2018-11-27T04:36:53.796Z,5.99
2018-11-27T04:39:23.847Z,5.94
2018-11-27T04:41:56.648Z,5.99
2018-11-27T04:44:26.959Z,6.02
2018-11-27T04:46:56.883Z,6.07
2018-11-27T04:49:26.797Z,6.22
2018-11-27T04:51:56.732Z,6.16
2018-11-27T04:54:26.623Z,6.29
2018-11-27T04:56:57.348Z,6.31
2018-11-27T04:59:27.338Z,6.23
2018-11-27T05:01:58.078Z,6.25
2018-11-27T05:04:27.949Z,6.15
2018-11-27T05:06:58.133Z,6.16
2018-11-27T05:09:28.097Z,6.12
2018-11-27T05:11:58.078Z,6.12
2018-11-27T05:14:28.129Z,6.05
2018-11-27T05:16:58.129Z,6.12
2018-11-27T05:19:27.996Z,6.08
2018-11-27T05:21:58.023Z,5.88
2018-11-27T05:24:28.007Z,5.68
2018-11-27T05:26:57.987Z,5.37
2018-11-27T05:29:27.983Z,5.25
2018-11-27T05:31:58.062Z,5.20
2018-11-27T05:34:28.903Z,5.37
2018-11-27T05:36:58.776Z,5.12
2018-11-27T05:39:28.774Z,5.12
2018-11-27T05:41:58.683Z,4.96
2018-11-27T05:44:28.582Z,4.86
2018-11-27T05:46:58.624Z,5.05
2018-11-27T05:49:28.508Z,5.13
2018-11-27T05:52:01.515Z,5.24
2018-11-27T05:54:31.503Z,5.44
2018-11-27T05:57:01.473Z,5.58
2018-11-27T05:59:34.047Z,5.67
2018-11-27T06:02:04.043Z,5.63
2018-11-27T06:04:34.031Z,5.71
2018-11-27T06:07:04.771Z,5.79
2018-11-27T06:09:37.500Z,5.94
2018-11-27T06:12:07.443Z,6.09
2018-11-27T06:14:37.381Z,6.03
2018-11-27T06:17:08.532Z,6.01
2018-11-27T06:19:38.407Z,6.01
2018-11-27T06:22:08.589Z,6.12
2018-11-27T06:24:38.512Z,6.15
2018-11-27T06:27:09.021Z,6.20
2018-11-27T06:29:39.029Z,6.25
2018-11-27T06:32:08.965Z,6.25
2018-11-27T06:34:38.887Z,6.24
2018-11-27T06:37:08.917Z,6.26
2018-11-27T06:39:40.728Z,6.22
2018-11-27T06:42:10.745Z,6.10
2018-11-27T06:44:40.701Z,6.06
2018-11-27T06:47:10.787Z,6.16
2018-11-27T06:49:40.647Z,6.11
2018-11-27T06:52:11.745Z,6.17
2018-11-27T06:54:41.691Z,6.04
2018-11-27T06:57:11.555Z,6.14
2018-11-27T06:59:41.568Z,6.17
2018-11-27T07:02:18.401Z,6.26
2018-11-27T07:04:48.348Z,6.33
2018-11-27T07:07:19.067Z,6.30
2018-11-27T07:09:49.003Z,6.39
2018-11-27T07:12:19.285Z,6.27
2018-11-27T07:14:49.198Z,5.97
2018-11-27T07:17:19.086Z,5.71
2018-11-27T07:19:48.957Z,5.56
2018-11-27T07:22:18.918Z,5.20
2018-11-27T07:24:48.827Z,5.22
2018-11-27T07:27:18.897Z,5.15
2018-11-27T07:29:48.841Z,5.05
2018-11-27T07:32:19.651Z,5.12
2018-11-27T07:34:49.601Z,5.26
2018-11-27T07:37:22.108Z,5.18
2018-11-27T07:39:55.076Z,5.41
2018-11-27T07:42:25.168Z,5.36
2018-11-27T07:44:55.032Z,5.34
2018-11-27T07:47:24.927Z,5.61
2018-11-27T07:49:54.909Z,5.72
2018-11-27T07:52:24.911Z,5.76
2018-11-27T07:54:56.752Z,5.79
2018-11-27T07:57:26.967Z,5.89
2018-11-27T07:59:56.839Z,5.96
2018-11-27T08:02:26.794Z,6.06
2018-11-27T08:04:56.810Z,6.08
2018-11-27T08:07:26.764Z,6.22
2018-11-27T08:09:56.726Z,6.32
2018-11-27T08:12:26.867Z,6.56
2018-11-27T08:14:56.906Z,6.61
2018-11-27T08:17:27.234Z,6.62
2018-11-27T08:19:57.172Z,6.69
2018-11-27T08:22:27.056Z,6.80
2018-11-27T08:24:57.022Z,6.86
2018-11-27T08:27:28.026Z,6.96
2018-11-27T08:29:57.946Z,6.98
2018-11-27T08:32:27.854Z,6.98
2018-11-27T08:34:57.959Z,7.07
2018-11-27T08:37:28.001Z,7.10
2018-11-27T08:40:01.200Z,7.10
2018-11-27T08:42:38.229Z,7.01
2018-11-27T08:45:12.821Z,6.97
2018-11-27T08:47:43.641Z,6.95
2018-11-27T08:50:20.668Z,6.98
2018-11-27T08:52:58.083Z,7.07
2018-11-27T08:55:38.526Z,7.25
2018-11-27T08:58:22.255Z,7.36
2018-11-27T09:00:54.878Z,7.42
2018-11-27T09:03:25.681Z,7.23
2018-11-27T09:05:55.674Z,7.20
2018-11-27T09:08:25.621Z,7.26
2018-11-27T09:10:55.955Z,7.34
2018-11-27T09:13:25.839Z,7.50
2018-11-27T09:15:55.827Z,7.41
2018-11-27T09:18:27.169Z,7.41
2018-11-27T09:20:57.120Z,7.31
2018-11-27T09:23:29.317Z,7.38
2018-11-27T09:25:59.406Z,7.33
2018-11-27T09:28:29.298Z,7.33
2018-11-27T09:31:00.071Z,7.34
2018-11-27T09:33:30.194Z,7.36
2018-11-27T09:36:00.178Z,7.33
2018-11-27T09:38:30.342Z,7.35
2018-11-27T09:41:01.213Z,7.37
2018-11-27T09:43:31.082Z,7.35
2018-11-27T09:46:03.545Z,7.42
2018-11-27T09:48:40.173Z,7.46
2018-11-27T09:51:10.872Z,7.42
2018-11-27T09:53:41.560Z,7.47
2018-11-27T09:56:11.576Z,7.49
2018-11-27T09:58:41.731Z,7.63
2018-11-27T10:01:11.655Z,7.76
2018-11-27T10:03:42.488Z,7.71
2018-11-27T10:06:13.255Z,7.82
2018-11-27T10:08:43.245Z,7.76
2018-11-27T10:11:13.305Z,7.71
2018-11-27T10:13:43.289Z,7.78
2018-11-27T10:16:14.007Z,7.88
2018-11-27T10:18:44.006Z,7.97
2018-11-27T10:21:13.966Z,8.08
2018-11-27T10:23:43.896Z,8.11
2018-11-27T10:26:13.914Z,8.27
2018-11-27T10:28:43.786Z,8.18
2018-11-27T10:31:13.691Z,8.22
2018-11-27T10:33:43.857Z,8.32
2018-11-27T10:36:14.687Z,8.29
2018-11-27T10:38:44.617Z,8.23
2018-11-27T10:41:14.521Z,8.21
2018-11-27T10:43:45.350Z,8.29
2018-11-27T10:46:15.236Z,8.25
2018-11-27T10:48:45.987Z,8.38
2018-11-27T10:51:16.080Z,8.45
2018-11-27T10:53:46.021Z,8.56
2018-11-27T10:56:16.041Z,8.56
2018-11-27T10:58:46.036Z,8.41
2018-11-27T11:01:33.181Z,8.42
2018-11-27T11:04:03.217Z,8.57
2018-11-27T11:06:33.672Z,8.63
2018-11-27T11:09:08.230Z,8.57
2018-11-27T11:11:38.949Z,8.52
2018-11-27T11:14:09.712Z,8.50
2018-11-27T11:16:39.690Z,8.51
2018-11-27T11:19:09.978Z,8.54
2018-11-27T11:21:39.927Z,8.58
2018-11-27T11:24:09.794Z,8.48
2018-11-27T11:26:39.681Z,8.36
2018-11-27T11:29:09.621Z,8.27
2018-11-27T11:31:39.673Z,8.27
2018-11-27T11:34:09.556Z,8.33
2018-11-27T11:36:39.532Z,8.51
2018-11-27T11:39:11.408Z,8.68
2018-11-27T11:41:41.368Z,8.71
2018-11-27T11:44:14.105Z,8.86
2018-11-27T11:46:46.452Z,8.93
2018-11-27T11:49:16.367Z,8.81
2018-11-27T11:51:46.488Z,8.69
2018-11-27T11:54:16.351Z,8.74
2018-11-27T11:56:52.649Z,8.69
2018-11-27T11:59:22.628Z,8.60
2018-11-27T12:01:53.285Z,8.70
2018-11-27T12:04:24.099Z,8.67
2018-11-27T12:06:54.091Z,8.73
2018-11-27T12:09:24.147Z,8.81
2018-11-27T12:11:54.189Z,8.91
2018-11-27T12:14:26.481Z,8.84
2018-11-27T12:16:56.411Z,8.87
2018-11-27T12:19:26.468Z,8.83
2018-11-27T12:21:56.348Z,8.73
2018-11-27T12:24:26.511Z,8.86
2018-11-27T12:26:57.220Z,8.81
2018-11-27T12:29:27.256Z,8.68
2018-11-27T12:31:57.269Z,8.70
2018-11-27T12:34:27.160Z,8.71
2018-11-27T12:36:57.239Z,8.63
2018-11-27T12:39:27.126Z,8.64
2018-11-27T12:41:57.886Z,8.75
2018-11-27T12:44:27.812Z,8.81
2018-11-27T12:46:57.815Z,8.65
2018-11-27T12:49:27.739Z,8.53
2018-11-27T12:51:57.656Z,8.38
2018-11-27T12:54:27.544Z,8.26
2018-11-27T12:56:57.512Z,8.19
2018-11-27T12:59:27.395Z,8.32
2018-11-27T13:01:57.466Z,8.50
2018-11-27T13:04:27.515Z,8.66
2018-11-27T13:06:57.568Z,8.73
2018-11-27T13:09:27.634Z,8.61
2018-11-27T13:11:57.682Z,8.72
2018-11-27T13:14:27.572Z,8.82
2018-11-27T13:16:57.577Z,8.72
2018-11-27T13:19:27.493Z,8.63
2018-11-27T13:21:57.369Z,8.52
2018-11-27T13:24:27.301Z,8.46
2018-11-27T13:26:57.188Z,8.35
2018-11-27T13:29:29.833Z,8.39
2018-11-27T13:31:59.759Z,8.28
2018-11-27T13:34:29.660Z,8.28
2018-11-27T13:36:59.773Z,8.42
2018-11-27T13:39:36.610Z,8.47
2018-11-27T13:42:08.449Z,8.53
2018-11-27T13:44:38.858Z,8.59
2018-11-27T13:47:08.818Z,8.62
2018-11-27T13:49:38.929Z,8.55
2018-11-27T13:52:08.883Z,8.46
2018-11-27T13:54:38.782Z,8.41
2018-11-27T13:57:08.885Z,8.27
2018-11-27T13:59:38.785Z,8.37
2018-11-27T14:02:09.591Z,8.52
2018-11-27T14:04:39.559Z,8.54
2018-11-27T14:07:09.572Z,8.25
2018-11-27T14:09:39.575Z,8.14
2018-11-27T14:12:09.552Z,8.23
2018-11-27T14:14:39.544Z,8.37
2018-11-27T14:17:10.372Z,8.49
2018-11-27T14:19:42.030Z,8.60
2018-11-27T14:22:11.930Z,8.63
2018-11-27T14:24:41.995Z,8.55
2018-11-27T14:27:11.993Z,8.49
2018-11-27T14:29:42.050Z,8.43
2018-11-27T14:32:11.981Z,8.31
2018-11-27T14:34:41.933Z,8.35
2018-11-27T14:37:11.924Z,8.28
2018-11-27T14:39:41.899Z,8.18
2018-11-27T14:42:11.846Z,7.97
2018-11-27T14:44:41.687Z,8.06
2018-11-27T14:47:11.656Z,8.16
2018-11-27T14:49:41.681Z,8.22
2018-11-27T14:52:11.691Z,8.11
2018-11-27T14:54:41.674Z,8.16
2018-11-27T14:57:11.594Z,8.09
2018-11-27T14:59:41.467Z,8.06
2018-11-27T15:02:11.459Z,7.98
2018-11-27T15:04:41.484Z,8.04
2018-11-27T15:07:11.390Z,8.05
2018-11-27T15:09:41.431Z,8.12
2018-11-27T15:12:11.341Z,8.08
2018-11-27T15:14:41.381Z,7.99
2018-11-27T15:17:11.395Z,7.99
2018-11-27T15:19:43.683Z,8.12
2018-11-27T15:22:13.721Z,8.08
2018-11-27T15:24:43.626Z,7.87
2018-11-27T15:27:15.393Z,7.81
2018-11-27T15:29:44.605Z,7.80
2018-11-27T15:32:14.633Z,7.79
2018-11-27T15:34:44.584Z,7.81
2018-11-27T15:37:14.612Z,7.86
2018-11-27T15:39:44.715Z,7.82
2018-11-27T15:42:14.635Z,7.73
2018-11-27T15:44:44.590Z,7.84
2018-11-27T15:47:14.496Z,7.86
2018-11-27T15:49:47.248Z,7.86
2018-11-27T15:52:17.179Z,7.86
2018-11-27T15:54:48.821Z,7.79
2018-11-27T15:57:19.396Z,7.77
2018-11-27T15:59:49.491Z,7.75
2018-11-27T16:02:19.381Z,7.75
2018-11-27T16:04:49.459Z,7.75
2018-11-27T16:07:19.509Z,7.67
2018-11-27T16:09:49.582Z,7.64
2018-11-27T16:12:20.563Z,7.67
2018-11-27T16:14:51.389Z,7.71
2018-11-27T16:17:21.401Z,7.70
2018-11-27T16:19:51.391Z,7.75
2018-11-27T16:22:21.373Z,7.79
2018-11-27T16:24:51.490Z,7.76
2018-11-27T16:27:23.658Z,7.70
2018-11-27T16:29:53.897Z,7.42
2018-11-27T16:32:23.865Z,7.39
2018-11-27T16:34:54.707Z,7.36
2018-11-27T16:37:24.644Z,7.33
2018-11-27T16:39:54.775Z,7.25
2018-11-27T16:42:30.419Z,7.21
2018-11-27T16:44:56.381Z,7.12
2018-11-27T16:47:26.446Z,6.98
2018-11-27T16:49:56.366Z,6.84
2018-11-27T16:52:26.425Z,6.65
2018-11-27T16:54:57.125Z,6.64
2018-11-27T16:57:27.389Z,6.54
2018-11-27T16:59:57.469Z,6.43
2018-11-27T17:02:30.104Z,6.29
2018-11-27T17:05:00.080Z,6.14
2018-11-27T17:07:30.086Z,5.99
2018-11-27T17:10:00.019Z,5.93
2018-11-27T17:12:30.314Z,5.87
2018-11-27T17:15:00.360Z,5.79
2018-11-27T17:17:31.226Z,5.65
2018-11-27T17:20:02.163Z,5.46
2018-11-27T17:22:32.159Z,5.24
2018-11-27T17:25:02.320Z,5.12
2018-11-27T17:27:32.377Z,5.09
2018-11-27T17:30:02.658Z,5.01
2018-11-27T17:32:32.645Z,4.97
2018-11-27T17:35:02.550Z,5.07
2018-11-27T17:37:32.706Z,5.09
2018-11-27T17:40:02.821Z,4.98
2018-11-27T17:42:32.823Z,4.91
2018-11-27T17:45:02.837Z,4.76
2018-11-27T17:47:32.723Z,4.73
2018-11-27T17:50:05.787Z,4.66
2018-11-27T17:52:36.088Z,4.59
2018-11-27T17:55:07.205Z,4.46
2018-11-27T17:57:37.570Z,4.31
2018-11-27T18:00:18.442Z,4.14
2018-11-27T18:02:52.674Z,4.10
2018-11-27T18:05:22.646Z,4.06
2018-11-27T18:07:52.708Z,4.09
2018-11-27T18:10:22.697Z,4.09
2018-11-27T18:12:52.592Z,3.98
2018-11-27T18:15:23.357Z,3.88
2018-11-27T18:17:53.559Z,4.04
2018-11-27T18:20:23.600Z,4.14
2018-11-27T18:22:53.756Z,4.07
2018-11-27T18:25:25.472Z,3.94
2018-11-27T18:27:55.569Z,3.80
2018-11-27T18:30:25.679Z,3.66
2018-11-27T18:32:55.790Z,3.50
2018-11-27T18:35:26.682Z,3.43
2018-11-27T18:37:56.685Z,3.34
2018-11-27T18:40:26.655Z,3.24
2018-11-27T18:42:56.740Z,3.34
2018-11-27T18:45:31.325Z,3.34
2018-11-27T18:48:02.070Z,3.33
2018-11-27T18:50:33.759Z,3.47
2018-11-27T18:53:06.961Z,3.46
2018-11-27T18:55:37.102Z,3.36
2018-11-27T18:58:07.167Z,3.24
2018-11-27T19:00:37.450Z,3.14
2018-11-27T19:03:07.486Z,3.31
2018-11-27T19:05:37.345Z,3.49
2018-11-27T19:08:07.637Z,3.43
2018-11-27T19:10:37.591Z,3.38
2018-11-27T19:13:08.331Z,3.40
2018-11-27T19:15:49.531Z,3.32
2018-11-27T19:18:25.713Z,3.20
2018-11-27T19:20:56.590Z,3.17
2018-11-27T19:23:27.668Z,3.18
2018-11-27T19:25:57.639Z,3.12
2018-11-27T19:28:27.791Z,3.08
2018-11-27T19:30:57.750Z,3.02
2018-11-27T19:33:27.701Z,2.93
2018-11-27T19:35:57.683Z,2.84
2018-11-27T19:38:27.611Z,2.77
2018-11-27T19:40:57.665Z,2.78
2018-11-27T19:43:27.756Z,2.76
2018-11-27T19:45:57.842Z,2.64
2018-11-27T19:48:27.846Z,2.63
2018-11-27T19:50:57.891Z,2.56
2018-11-27T19:53:27.980Z,2.55
2018-11-27T19:55:58.059Z,2.50
2018-11-27T19:58:28.035Z,2.39
2018-11-27T20:00:58.024Z,2.52
2018-11-27T20:03:28.034Z,2.56
2018-11-27T20:05:58.040Z,2.51
2018-11-27T20:08:28.018Z,2.49
2018-11-27T20:10:58.039Z,2.60
2018-11-27T20:13:28.858Z,2.55
2018-11-27T20:15:58.837Z,2.51
2018-11-27T20:18:28.777Z,2.38
2018-11-27T20:20:58.884Z,2.19
2018-11-27T20:23:28.983Z,2.15
2018-11-27T20:25:59.111Z,2.27
2018-11-27T20:28:29.113Z,2.39
2018-11-27T20:30:59.075Z,2.32
2018-11-27T20:33:29.139Z,2.21
2018-11-27T20:35:59.170Z,2.17
2018-11-27T20:38:29.289Z,2.15
2018-11-27T20:40:59.595Z,2.03
2018-11-27T20:43:29.741Z,1.93
2018-11-27T20:46:00.565Z,1.78
2018-11-27T20:48:31.426Z,1.78
2018-11-27T20:51:01.354Z,1.85
2018-11-27T20:53:31.440Z,1.78
2018-11-27T20:56:01.490Z,1.66
2018-11-27T20:58:31.536Z,1.54
2018-11-27T21:01:01.606Z,1.58
2018-11-27T21:03:31.510Z,1.59
2018-11-27T21:06:01.609Z,1.75
2018-11-27T21:08:31.626Z,1.79
2018-11-27T21:11:01.529Z,1.82
2018-11-27T21:13:31.613Z,1.86
2018-11-27T21:16:01.550Z,1.91
2018-11-27T21:18:31.561Z,1.96
2018-11-27T21:21:01.743Z,1.87
2018-11-27T21:23:32.551Z,1.98
2018-11-27T21:26:05.157Z,2.05
2018-11-27T21:28:35.845Z,2.05
2018-11-27T21:31:07.712Z,2.18
2018-11-27T21:33:37.595Z,2.22
2018-11-27T21:36:07.723Z,2.16
2018-11-27T21:38:37.786Z,2.11
2018-11-27T21:41:08.055Z,2.07
2018-11-27T21:43:38.721Z,2.12
2018-11-27T21:46:08.779Z,2.14
2018-11-27T21:48:38.704Z,2.10
2018-11-27T21:51:09.464Z,2.02
2018-11-27T21:53:39.504Z,2.01
2018-11-27T21:56:09.596Z,2.17
2018-11-27T21:58:39.676Z,2.28
2018-11-27T22:01:09.913Z,2.29
2018-11-27T22:03:39.826Z,2.21
2018-11-27T22:06:09.921Z,2.17
2018-11-27T22:08:46.509Z,2.13
2018-11-27T22:11:16.459Z,2.23
2018-11-27T22:13:47.388Z,2.35
2018-11-27T22:16:17.313Z,2.40
2018-11-27T22:18:47.286Z,2.35
2018-11-27T22:21:17.155Z,2.34
2018-11-27T22:23:47.118Z,2.29
2018-11-27T22:26:17.265Z,2.40
2018-11-27T22:28:47.247Z,2.54
2018-11-27T22:31:17.187Z,2.66
2018-11-27T22:33:47.430Z,2.72
2018-11-27T22:36:17.319Z,2.80
2018-11-27T22:38:47.269Z,2.83
2018-11-27T22:41:17.230Z,2.87
2018-11-27T22:43:47.994Z,2.97
2018-11-27T22:46:18.244Z,2.96
2018-11-27T22:48:49.078Z,3.02
2018-11-27T22:51:19.074Z,3.18
2018-11-27T22:53:49.067Z,3.26
2018-11-27T22:56:18.959Z,3.35
2018-11-27T22:58:49.102Z,3.38
2018-11-27T23:01:19.015Z,3.30
2018-11-27T23:03:49.474Z,3.36
2018-11-27T23:06:19.524Z,3.45
2018-11-27T23:08:49.593Z,3.49
2018-11-27T23:11:19.687Z,3.48
2018-11-27T23:13:49.751Z,3.56
2018-11-27T23:16:20.509Z,3.61
2018-11-27T23:18:50.514Z,3.65
2018-11-27T23:21:20.429Z,3.73
2018-11-27T23:23:50.398Z,3.79
2018-11-27T23:26:20.362Z,3.79
2018-11-27T23:28:50.381Z,3.81
2018-11-27T23:31:20.409Z,3.82
2018-11-27T23:33:51.209Z,3.83
2018-11-27T23:36:21.771Z,3.75
2018-11-27T23:38:51.728Z,3.82
2018-11-27T23:41:21.742Z,3.89
2018-11-27T23:43:51.748Z,3.83
2018-11-27T23:46:21.852Z,3.81
2018-11-27T23:48:52.588Z,3.76
2018-11-27T23:51:22.680Z,3.78
2018-11-27T23:53:52.594Z,3.80
2018-11-27T23:56:23.430Z,3.80
2018-11-27T23:58:53.422Z,3.85
